Time;durP1;ratioP1;P1;durP2;ratioP2;P2;SDS_P1;SDS_P2;PMS_P1;PMS_P2;Temp;Humidity;BMP_temperature;BMP_pressure;BME280_temperature;BME280_humidity;BME280_pressure;Samples;Min_cycle;Max_cycle;Signal;HPM_P1;HPM_P2
2021/04/26 00:01:59;;;;;;;2.97;1.33;;;-2.30;90.20;;;;;;5050352;28;20021;-37
2021/04/26 00:04:25;;;;;;;2.63;1.38;;;-2.30;90.70;;;;;;5049240;28;20480;-38
2021/04/26 00:06:50;;;;;;;4.68;2.05;;;-2.30;90.90;;;;;;5050632;28;20025;-38
2021/04/26 00:09:16;;;;;;;2.50;1.10;;;-2.30;90.50;;;;;;5050456;28;20045;-38
2021/04/26 00:11:41;;;;;;;3.17;1.33;;;-2.30;92.30;;;;;;5050299;28;20103;-38
2021/04/26 00:14:07;;;;;;;3.13;1.20;;;-2.30;91.50;;;;;;5050077;28;20468;-38
2021/04/26 00:16:33;;;;;;;2.45;1.23;;;-2.40;91.20;;;;;;5050374;28;20029;-37
2021/04/26 00:19:00;;;;;;;2.15;1.20;;;-2.50;90.80;;;;;;5049042;28;20406;-38
2021/04/26 00:21:26;;;;;;;2.50;1.30;;;-2.50;91.20;;;;;;5050406;28;20040;-38
2021/04/26 00:23:51;;;;;;;1.48;1.05;;;-2.50;90.90;;;;;;5050598;28;20033;-37
2021/04/26 00:26:17;;;;;;;2.30;1.15;;;-2.50;91.70;;;;;;5050288;28;20400;-38
2021/04/26 00:28:42;;;;;;;2.53;1.15;;;-2.50;91.70;;;;;;5050185;28;20072;-38
2021/04/26 00:31:08;;;;;;;2.90;1.27;;;-2.60;92.50;;;;;;5049943;28;20443;-38
2021/04/26 00:33:33;;;;;;;1.58;0.93;;;-2.60;92.00;;;;;;5048920;28;20045;-37
2021/04/26 00:35:59;;;;;;;3.47;1.35;;;-2.60;92.60;;;;;;5050060;28;20033;-38
2021/04/26 00:38:24;;;;;;;2.42;1.00;;;-2.60;92.20;;;;;;5050260;28;20028;-38
2021/04/26 00:40:50;;;;;;;1.90;0.88;;;-2.70;93.10;;;;;;5050199;28;20468;-38
2021/04/26 00:43:16;;;;;;;3.28;1.08;;;-2.70;92.80;;;;;;5049850;28;20018;-38
2021/04/26 00:45:41;;;;;;;2.15;0.90;;;-2.80;92.40;;;;;;5049998;28;20107;-38
2021/04/26 00:48:07;;;;;;;3.90;1.13;;;-2.80;92.70;;;;;;5048862;28;20322;-38
2021/04/26 00:50:33;;;;;;;1.08;0.88;;;-2.80;93.60;;;;;;5055663;28;20024;-38
2021/04/26 00:53:01;;;;;;;3.13;1.27;;;-2.80;93.20;;;;;;5049874;28;20020;-38
2021/04/26 00:55:28;;;;;;;1.92;1.20;;;-2.80;93.40;;;;;;5050245;28;20025;-39
2021/04/26 00:57:54;;;;;;;3.25;1.48;;;-2.80;93.60;;;;;;5049933;28;20295;-38
2021/04/26 01:00:21;;;;;;;2.17;1.00;;;-2.90;93.30;;;;;;5049969;28;21096;-38
2021/04/26 01:02:47;;;;;;;1.67;1.25;;;-2.90;94.70;;;;;;5048646;28;20380;-38
2021/04/26 01:05:16;;;;;;;1.90;1.08;;;-2.90;94.60;;;;;;5052282;28;20036;-39
2021/04/26 01:07:42;;;;;;;3.22;1.23;;;-2.90;94.90;;;;;;5053763;28;20025;-38
2021/04/26 01:10:11;;;;;;;1.52;1.23;;;-2.90;94.50;;;;;;5053585;28;20063;-38
2021/04/26 01:12:45;;;;;;;3.80;1.48;;;-2.90;94.60;;;;;;5053584;28;20032;-38
2021/04/26 01:15:27;;;;;;;2.63;1.15;;;-2.90;95.00;;;;;;5053372;28;20036;-37
2021/04/26 01:17:58;;;;;;;5.15;1.42;;;-2.90;94.40;;;;;;5050811;28;20021;-38
2021/04/26 01:20:59;;;;;;;3.08;1.60;;;-3.00;95.00;;;;;;5053064;28;20044;-37
2021/04/26 01:24:10;;;;;;;3.08;1.20;;;-3.00;95.80;;;;;;5053308;28;20061;-38
2021/04/26 01:26:42;;;;;;;1.55;0.98;;;-3.00;95.90;;;;;;5053314;28;20108;-37
2021/04/26 01:29:41;;;;;;;2.28;1.45;;;-3.10;97.30;;;;;;5054454;28;20065;-38
2021/04/26 01:32:10;;;;;;;2.78;1.52;;;-3.10;96.80;;;;;;5070621;28;20028;-38
2021/04/26 01:34:38;;;;;;;1.40;1.00;;;-3.10;96.30;;;;;;5074822;28;20131;-38
2021/04/26 01:37:05;;;;;;;3.28;1.35;;;-3.20;95.90;;;;;;5074808;28;20051;-38
2021/04/26 01:39:31;;;;;;;2.05;1.10;;;-3.20;96.00;;;;;;5074896;28;20039;-38
2021/04/26 01:41:58;;;;;;;2.58;1.20;;;-3.20;95.90;;;;;;5074707;28;20036;-38
2021/04/26 01:44:24;;;;;;;2.25;1.23;;;-3.20;96.10;;;;;;5071066;28;20032;-37
2021/04/26 01:46:50;;;;;;;2.60;1.10;;;-3.20;96.00;;;;;;5074571;28;20033;-38
2021/04/26 01:49:18;;;;;;;1.70;1.10;;;-3.30;96.80;;;;;;5073534;28;20025;-38
2021/04/26 01:51:45;;;;;;;3.42;1.30;;;-3.30;96.50;;;;;;5063151;28;20384;-38
2021/04/26 01:54:11;;;;;;;2.38;1.20;;;-3.30;97.00;;;;;;5054414;28;20017;-38
2021/04/26 01:56:37;;;;;;;2.47;1.30;;;-3.30;97.20;;;;;;5054536;28;20144;-39
2021/04/26 01:59:05;;;;;;;1.67;1.33;;;-3.30;97.60;;;;;;5054550;28;20037;-38
2021/04/26 02:01:31;;;;;;;4.28;1.75;;;-3.40;97.80;;;;;;5054262;28;20033;-38
2021/04/26 02:04:00;;;;;;;4.80;1.85;;;-3.40;98.00;;;;;;5053256;28;20039;-38
2021/04/26 02:06:26;;;;;;;5.03;2.10;;;-3.40;99.00;;;;;;5054188;28;20036;-38
2021/04/26 02:08:51;;;;;;;5.72;2.00;;;-3.40;98.00;;;;;;5054425;28;20079;-38
2021/04/26 02:11:18;;;;;;;4.43;2.10;;;-3.40;98.20;;;;;;5054061;28;20410;-38
2021/04/26 02:13:45;;;;;;;4.50;1.80;;;-3.40;98.90;;;;;;5054323;28;20029;-38
2021/04/26 02:16:11;;;;;;;4.45;1.70;;;-3.40;98.70;;;;;;5053711;28;20025;-38
2021/04/26 02:18:36;;;;;;;6.90;2.40;;;-3.50;98.60;;;;;;5053243;28;20500;-37
2021/04/26 02:21:03;;;;;;;7.88;2.58;;;-3.50;98.20;;;;;;5054038;28;20033;-38
2021/04/26 02:23:30;;;;;;;8.23;2.20;;;-3.50;98.20;;;;;;5053825;28;20025;-38
2021/04/26 02:25:56;;;;;;;3.05;1.40;;;-3.50;98.80;;;;;;5054152;28;20036;-38
2021/04/26 02:28:22;;;;;;;4.15;1.95;;;-3.50;99.70;;;;;;5053748;28;20029;-37
2021/04/26 02:30:52;;;;;;;5.93;1.80;;;-3.50;99.40;;;;;;5059578;28;20050;-38
2021/04/26 02:33:24;;;;;;;4.93;2.28;;;-3.60;99.20;;;;;;5072084;28;20495;-38
2021/04/26 02:35:55;;;;;;;4.22;2.30;;;-3.60;98.90;;;;;;5073742;28;20033;-38
2021/04/26 02:38:30;;;;;;;3.88;1.80;;;-3.60;99.00;;;;;;5073558;28;20025;-38
2021/04/26 02:41:06;;;;;;;2.50;1.45;;;-3.60;99.40;;;;;;5073784;28;20058;-38
2021/04/26 02:43:37;;;;;;;3.05;1.70;;;-3.70;99.20;;;;;;5073565;28;20032;-38
2021/04/26 02:46:05;;;;;;;2.95;1.55;;;-3.70;99.20;;;;;;5073512;28;20039;-38
2021/04/26 02:48:32;;;;;;;9.50;1.92;;;-3.70;99.60;;;;;;5072558;28;20059;-38
2021/04/26 02:50:59;;;;;;;5.53;1.77;;;-3.70;99.40;;;;;;5068584;28;20031;-38
2021/04/26 02:53:28;;;;;;;6.18;2.17;;;-3.70;99.70;;;;;;5053279;28;20028;-37
2021/04/26 02:55:58;;;;;;;1.83;1.25;;;-3.80;99.50;;;;;;5053455;28;20074;-38
2021/04/26 02:58:25;;;;;;;2.45;1.30;;;-3.80;99.70;;;;;;5053185;28;20032;-37
2021/04/26 03:00:51;;;;;;;3.10;1.73;;;-3.90;99.90;;;;;;5053176;28;20417;-38
2021/04/26 03:03:18;;;;;;;5.13;2.00;;;-3.80;99.90;;;;;;5051768;28;20060;-37
2021/04/26 03:05:44;;;;;;;5.78;1.55;;;-3.90;99.90;;;;;;5053226;28;20017;-38
2021/04/26 03:08:10;;;;;;;1.58;1.10;;;-3.90;99.90;;;;;;5051778;28;20025;-38
2021/04/26 03:10:36;;;;;;;5.63;1.70;;;-3.90;99.90;;;;;;5053314;28;20036;-38
2021/04/26 03:13:04;;;;;;;6.78;1.52;;;-3.90;99.90;;;;;;5053261;28;20021;-38
2021/04/26 03:15:30;;;;;;;3.78;1.60;;;-4.00;99.90;;;;;;5052891;28;20021;-38
2021/04/26 03:17:56;;;;;;;4.18;1.48;;;-4.00;99.90;;;;;;5051597;28;20025;-38
2021/04/26 03:20:24;;;;;;;4.30;1.77;;;-4.00;99.90;;;;;;5052946;28;20029;-37
2021/04/26 03:22:50;;;;;;;4.45;1.55;;;-4.00;99.90;;;;;;5052877;28;20127;-38
2021/04/26 03:25:20;;;;;;;3.67;1.77;;;-4.00;99.90;;;;;;5052901;28;20368;-37
2021/04/26 03:27:47;;;;;;;2.42;1.17;;;-4.00;99.90;;;;;;5052088;28;20111;-37
2021/04/26 03:30:16;;;;;;;4.18;1.77;;;-4.10;99.90;;;;;;5053480;28;20444;-37
2021/04/26 03:32:42;;;;;;;3.53;1.52;;;-4.10;99.90;;;;;;5071366;28;20032;-37
2021/04/26 03:35:12;;;;;;;1.98;1.25;;;-4.10;99.90;;;;;;5072584;28;20036;-37
2021/04/26 03:37:39;;;;;;;4.70;1.70;;;-4.10;99.90;;;;;;5072602;28;20052;-37
2021/04/26 03:40:05;;;;;;;2.78;1.52;;;-4.10;99.90;;;;;;5072745;28;20106;-37
2021/04/26 03:42:31;;;;;;;4.25;1.48;;;-4.10;99.90;;;;;;5072316;28;20361;-37
2021/04/26 03:44:57;;;;;;;4.82;1.90;;;-4.10;99.90;;;;;;5072614;28;20063;-38
2021/04/26 03:47:22;;;;;;;7.10;1.83;;;-4.10;99.90;;;;;;5069771;28;20028;-37
2021/04/26 03:49:48;;;;;;;3.05;1.75;;;-4.10;99.90;;;;;;5072471;28;20032;-37
2021/04/26 03:52:14;;;;;;;3.67;1.77;;;-4.10;99.90;;;;;;5056793;28;20099;-37
2021/04/26 03:54:39;;;;;;;3.65;2.33;;;-4.10;99.90;;;;;;5052444;28;20029;-37
2021/04/26 03:57:05;;;;;;;3.88;1.73;;;-4.00;99.90;;;;;;5052245;28;20039;-37
2021/04/26 03:59:31;;;;;;;3.72;1.60;;;-4.00;99.90;;;;;;5052333;28;20025;-37
2021/04/26 04:01:57;;;;;;;1.75;1.27;;;-4.00;99.90;;;;;;5052238;28;20037;-37
2021/04/26 04:04:23;;;;;;;2.22;1.40;;;-3.90;99.90;;;;;;5047032;28;20029;-37
2021/04/26 04:06:49;;;;;;;2.20;1.38;;;-3.90;99.90;;;;;;5052065;28;20021;-37
2021/04/26 04:09:16;;;;;;;3.65;1.45;;;-3.90;99.90;;;;;;5051866;28;20023;-37
2021/04/26 04:11:42;;;;;;;2.85;1.60;;;-3.80;99.90;;;;;;5051951;28;20033;-37
2021/04/26 04:14:08;;;;;;;4.20;2.03;;;-3.80;99.90;;;;;;5052070;28;20025;-37
2021/04/26 04:16:33;;;;;;;3.88;1.80;;;-3.70;99.90;;;;;;5051955;28;20037;-37
2021/04/26 04:18:59;;;;;;;5.80;1.50;;;-3.70;99.90;;;;;;5048750;28;20052;-37
2021/04/26 04:21:25;;;;;;;1.25;1.00;;;-3.60;99.90;;;;;;5052165;28;20021;-37
2021/04/26 04:23:51;;;;;;;3.22;0.95;;;-3.50;99.90;;;;;;5051973;28;20025;-38
2021/04/26 04:26:17;;;;;;;1.83;1.20;;;-3.40;99.90;;;;;;5051685;28;20029;-38
2021/04/26 04:28:42;;;;;;;2.38;1.27;;;-3.30;99.90;;;;;;5051842;28;20543;-37
2021/04/26 04:31:08;;;;;;;2.30;1.20;;;-3.10;99.90;;;;;;5060461;28;20021;-37
2021/04/26 04:33:34;;;;;;;4.95;1.80;;;-2.60;99.90;;;;;;5070234;28;20040;-38
2021/04/26 04:36:00;;;;;;;4.57;2.05;;;-1.40;99.90;;;;;;5071682;28;20070;-38
2021/04/26 04:38:26;;;;;;;4.82;1.77;;;0.30;97.90;;;;;;5072853;28;20028;-38
2021/04/26 04:40:55;;;;;;;3.67;1.60;;;1.80;93.20;;;;;;5075922;28;20112;-38
2021/04/26 04:43:22;;;;;;;2.53;1.30;;;3.30;88.80;;;;;;5075610;28;20064;-38
2021/04/26 04:45:48;;;;;;;2.92;1.75;;;4.50;82.90;;;;;;5075868;28;20107;-38
2021/04/26 04:48:13;;;;;;;3.53;1.52;;;5.70;77.70;;;;;;5074530;28;20108;-38
2021/04/26 04:50:39;;;;;;;4.07;1.50;;;6.60;73.80;;;;;;5067763;28;20021;-38
2021/04/26 04:53:04;;;;;;;5.80;2.28;;;7.50;70.90;;;;;;5055614;28;20029;-38
2021/04/26 04:55:30;;;;;;;3.92;1.52;;;8.30;69.30;;;;;;5055553;28;20496;-38
2021/04/26 04:57:55;;;;;;;3.85;1.73;;;9.00;67.40;;;;;;5055533;28;20033;-38
2021/04/26 05:00:21;;;;;;;3.53;2.00;;;9.70;65.80;;;;;;5055535;28;20536;-38
2021/04/26 05:02:46;;;;;;;2.67;1.92;;;10.20;65.00;;;;;;5054107;28;20029;-41
2021/04/26 05:05:12;;;;;;;4.25;2.10;;;10.70;63.60;;;;;;5055489;28;20044;-39
2021/04/26 05:07:38;;;;;;;3.30;2.00;;;11.30;62.80;;;;;;5055236;28;20033;-40
2021/04/26 05:10:05;;;;;;;3.58;2.10;;;11.90;62.40;;;;;;5055544;28;20091;-38
2021/04/26 05:12:31;;;;;;;6.78;2.80;;;12.40;61.50;;;;;;5053990;28;20107;-40
2021/04/26 05:14:57;;;;;;;61.30;6.97;;;12.90;60.30;;;;;;5055449;28;20440;-38
2021/04/26 05:17:22;;;;;;;71.47;7.70;;;13.30;59.40;;;;;;5053848;28;20426;-39
2021/04/26 05:19:48;;;;;;;20.23;3.72;;;13.70;57.50;;;;;;5055155;28;20024;-38
2021/04/26 05:22:14;;;;;;;5.63;2.20;;;14.10;55.30;;;;;;5055022;28;20035;-38
2021/04/26 05:24:40;;;;;;;2.72;1.50;;;14.60;55.60;;;;;;5054933;28;20044;-39
2021/04/26 05:27:06;;;;;;;4.07;1.20;;;15.00;55.40;;;;;;5055152;28;20029;-40
2021/04/26 05:29:32;;;;;;;2.25;0.95;;;15.40;54.40;;;;;;5054967;28;20488;-38
2021/04/26 05:31:57;;;;;;;2.90;0.75;;;15.80;53.80;;;;;;5054999;28;20028;-39
2021/04/26 05:34:23;;;;;;;3.80;2.42;;;16.20;52.70;;;;;;5053477;28;20081;-39
2021/04/26 05:36:48;;;;;;;2.67;1.90;;;16.60;52.00;;;;;;5054897;28;20025;-39
2021/04/26 05:39:14;;;;;;;2.28;0.90;;;17.00;51.00;;;;;;5054862;28;20570;-38
2021/04/26 05:41:39;;;;;;;1.60;0.80;;;17.40;49.70;;;;;;5052228;28;20155;-39
2021/04/26 05:44:05;;;;;;;1.55;0.75;;;17.60;48.70;;;;;;5054503;28;20448;-39
2021/04/26 05:46:31;;;;;;;1.33;0.60;;;17.90;48.30;;;;;;5054578;28;20041;-38
2021/04/26 05:48:56;;;;;;;1.92;0.68;;;18.20;47.40;;;;;;5053320;28;20029;-39
2021/04/26 05:51:23;;;;;;;1.33;0.50;;;18.60;46.40;;;;;;5053669;28;20017;-38
2021/04/26 05:53:48;;;;;;;1.50;0.80;;;18.70;44.90;;;;;;5054473;28;20105;-39
2021/04/26 05:56:14;;;;;;;1.65;0.70;;;18.90;44.30;;;;;;5054412;28;20436;-38
2021/04/26 05:58:39;;;;;;;0.90;0.57;;;19.20;44.20;;;;;;5054307;28;20039;-39
2021/04/26 06:01:05;;;;;;;2.38;0.70;;;19.40;43.50;;;;;;5054591;28;20050;-39
2021/04/26 06:03:31;;;;;;;3.20;0.52;;;19.70;43.70;;;;;;5052922;28;20415;-39
2021/04/26 06:05:57;;;;;;;1.30;0.63;;;20.10;43.70;;;;;;5054479;28;20021;-39
2021/04/26 06:08:23;;;;;;;1.65;0.43;;;20.50;43.20;;;;;;5054021;28;20431;-39
2021/04/26 06:10:48;;;;;;;3.03;0.68;;;20.90;42.80;;;;;;5054095;28;20095;-39
2021/04/26 06:13:14;;;;;;;0.70;0.52;;;21.30;41.90;;;;;;5054098;28;20111;-41
2021/04/26 06:15:39;;;;;;;1.50;0.60;;;21.60;41.20;;;;;;5054259;28;20055;-39
2021/04/26 06:18:16;;;;;;;1.58;0.82;;;21.60;41.10;;;;;;5053253;28;20111;-39
2021/04/26 06:20:44;;;;;;;1.52;0.85;;;21.80;39.70;;;;;;5052910;28;20021;-39
2021/04/26 06:23:09;;;;;;;1.85;0.90;;;22.10;38.20;;;;;;5053729;28;20033;-39
2021/04/26 06:25:37;;;;;;;2.40;1.02;;;22.20;39.60;;;;;;5054015;28;20070;-39
2021/04/26 06:28:12;;;;;;;1.30;0.75;;;22.30;38.80;;;;;;5054033;28;20025;-39
2021/04/26 06:30:41;;;;;;;1.33;0.40;;;21.90;38.50;;;;;;5056923;28;20379;-40
2021/04/26 06:33:09;;;;;;;1.65;1.08;;;22.00;39.00;;;;;;5072709;28;20029;-39
2021/04/26 06:35:35;;;;;;;1.92;1.08;;;22.10;38.40;;;;;;5073650;28;20032;-38
2021/04/26 06:38:01;;;;;;;6.45;1.17;;;22.10;38.10;;;;;;5073763;28;20487;-39
2021/04/26 06:40:26;;;;;;;2.22;0.60;;;22.50;38.00;;;;;;5073772;28;20482;-39
2021/04/26 06:42:52;;;;;;;1.17;0.75;;;22.60;37.50;;;;;;5073686;28;20039;-39
2021/04/26 06:45:21;;;;;;;1.25;0.80;;;22.80;36.40;;;;;;5073638;28;20122;-39
2021/04/26 06:47:48;;;;;;;0.70;0.60;;;22.90;36.90;;;;;;5072345;28;20035;-38
2021/04/26 06:50:15;;;;;;;1.33;0.75;;;23.40;36.60;;;;;;5073502;28;20017;-39
2021/04/26 06:52:41;;;;;;;2.53;0.73;;;23.60;36.10;;;;;;5053838;28;20025;-39
2021/04/26 06:55:07;;;;;;;1.63;0.57;;;23.60;35.70;;;;;;5052690;28;20079;-39
2021/04/26 06:57:33;;;;;;;2.17;0.95;;;23.60;34.30;;;;;;5037007;28;20045;-38
2021/04/26 06:59:58;;;;;;;1.60;0.57;;;23.60;35.20;;;;;;5042415;28;20025;-39
2021/04/26 07:02:24;;;;;;;3.05;0.80;;;23.70;35.10;;;;;;5041968;28;20037;-39
2021/04/26 07:04:49;;;;;;;1.08;0.60;;;23.60;32.20;;;;;;5051093;28;20493;-39
2021/04/26 07:07:15;;;;;;;2.60;0.70;;;23.50;34.70;;;;;;5059099;28;20107;-39
2021/04/26 07:09:40;;;;;;;1.17;0.60;;;23.50;34.50;;;;;;5061272;28;20082;-39
2021/04/26 07:12:06;;;;;;;2.42;0.52;;;23.80;34.40;;;;;;5034019;28;20029;-39
2021/04/26 07:14:32;;;;;;;1.50;0.77;;;24.20;34.10;;;;;;5032744;28;20025;-40
2021/04/26 07:18:05;;;;;;;1.00;0.57;;;24.60;34.00;;;;;;5051288;28;20025;-39
2021/04/26 07:20:31;;;;;;;1.05;0.75;;;24.40;31.50;;;;;;5052991;28;20381;-39
2021/04/26 07:22:56;;;;;;;1.00;0.60;;;23.90;32.30;;;;;;5064228;28;20024;-39
2021/04/26 07:25:22;;;;;;;1.95;0.55;;;23.90;33.90;;;;;;5045320;28;20057;-39
2021/04/26 07:27:47;;;;;;;2.05;0.70;;;24.10;32.40;;;;;;5042301;28;20054;-39
2021/04/26 07:30:14;;;;;;;0.98;0.60;;;24.30;32.70;;;;;;5064573;28;20047;-39
2021/04/26 07:32:41;;;;;;;1.95;0.93;;;24.70;32.50;;;;;;5071735;28;20068;-39
2021/04/26 07:35:07;;;;;;;2.53;0.85;;;25.10;31.60;;;;;;5058533;28;20427;-39
2021/04/26 07:37:32;;;;;;;1.85;0.85;;;25.10;31.00;;;;;;5052599;28;20128;-39
2021/04/26 07:39:58;;;;;;;1.10;0.80;;;25.00;30.70;;;;;;5063091;28;20100;-39
2021/04/26 07:42:23;;;;;;;2.08;0.77;;;24.60;30.50;;;;;;5044716;28;20423;-39
2021/04/26 07:44:49;;;;;;;2.97;0.80;;;24.20;30.80;;;;;;5044048;28;20028;-39
2021/04/26 07:47:14;;;;;;;3.70;0.75;;;24.30;30.90;;;;;;5047783;28;20493;-39
2021/04/26 07:49:40;;;;;;;1.60;0.52;;;24.50;30.10;;;;;;5040172;28;20025;-39
2021/04/26 07:52:06;;;;;;;1.90;0.60;;;24.50;29.90;;;;;;5049538;28;20101;-40
2021/04/26 07:54:32;;;;;;;0.90;0.50;;;24.80;30.00;;;;;;5038696;28;20063;-39
2021/04/26 07:56:57;;;;;;;2.30;0.60;;;25.20;29.80;;;;;;5036294;28;20488;-40
2021/04/26 07:59:23;;;;;;;2.10;0.57;;;25.60;29.50;;;;;;5051493;28;20096;-39
2021/04/26 08:01:49;;;;;;;1.90;0.70;;;25.70;29.30;;;;;;5052271;28;20079;-40
2021/04/26 08:04:14;;;;;;;0.68;0.50;;;25.70;29.30;;;;;;5051111;28;20063;-39
2021/04/26 08:06:40;;;;;;;0.63;0.50;;;25.70;29.10;;;;;;5048508;28;20044;-39
2021/04/26 08:09:07;;;;;;;2.20;0.80;;;25.90;29.30;;;;;;5046331;28;20061;-39
2021/04/26 08:11:33;;;;;;;1.17;0.50;;;25.60;28.70;;;;;;5052320;28;20025;-40
2021/04/26 08:13:58;;;;;;;1.95;0.70;;;25.30;29.00;;;;;;5051234;28;20089;-39
2021/04/26 08:16:24;;;;;;;1.00;0.40;;;25.50;28.90;;;;;;5055993;28;20112;-39
2021/04/26 08:18:49;;;;;;;2.22;0.80;;;25.60;28.60;;;;;;5055486;28;20028;-39
2021/04/26 08:21:15;;;;;;;2.05;0.80;;;25.10;28.10;;;;;;5056119;28;20033;-40
2021/04/26 08:23:43;;;;;;;2.88;0.80;;;25.10;28.30;;;;;;5056034;28;20445;-39
2021/04/26 08:26:09;;;;;;;0.93;0.55;;;25.30;28.50;;;;;;5044860;28;20037;-39
2021/04/26 08:28:35;;;;;;;1.30;0.70;;;25.40;28.40;;;;;;5060821;28;20495;-39
2021/04/26 08:31:01;;;;;;;2.05;0.80;;;25.90;28.30;;;;;;5068491;28;20036;-39
2021/04/26 08:33:28;;;;;;;1.30;0.68;;;26.30;27.90;;;;;;5054987;28;20059;-39
2021/04/26 08:35:54;;;;;;;1.15;0.55;;;26.30;28.10;;;;;;5055761;28;20052;-39
2021/04/26 08:38:20;;;;;;;0.68;0.50;;;26.40;27.90;;;;;;5056331;28;20055;-39
2021/04/26 08:40:45;;;;;;;1.38;0.60;;;26.70;28.00;;;;;;5055440;28;20152;-41
2021/04/26 08:43:11;;;;;;;1.10;0.60;;;27.00;27.90;;;;;;5055977;28;20112;-39
2021/04/26 08:45:36;;;;;;;2.35;0.70;;;26.80;27.70;;;;;;5055358;28;20033;-43
2021/04/26 08:48:03;;;;;;;1.67;0.70;;;26.50;27.80;;;;;;5053852;28;20040;-39
2021/04/26 08:50:30;;;;;;;2.42;0.60;;;25.00;28.10;;;;;;5056553;28;20027;-39
2021/04/26 08:52:55;;;;;;;0.85;0.63;;;25.00;28.20;;;;;;5054317;28;20025;-39
2021/04/26 08:55:21;;;;;;;1.98;0.82;;;24.90;28.20;;;;;;5055518;28;20029;-39
2021/04/26 08:57:47;;;;;;;3.50;0.93;;;25.00;28.10;;;;;;5055189;28;20450;-39
2021/04/26 09:00:15;;;;;;;1.67;0.50;;;24.80;27.60;;;;;;5055894;28;20028;-39
2021/04/26 09:02:45;;;;;;;1.75;0.70;;;25.00;27.90;;;;;;5052116;28;20029;-39
2021/04/26 09:05:36;;;;;;;2.55;0.50;;;25.20;27.50;;;;;;5055306;28;20035;-39
2021/04/26 09:08:05;;;;;;;1.33;0.70;;;24.30;27.00;;;;;;5055431;28;20507;-39
2021/04/26 09:10:44;;;;;;;1.55;0.82;;;23.70;28.00;;;;;;5054481;28;20488;-43
2021/04/26 09:13:33;;;;;;;1.17;0.60;;;23.40;28.00;;;;;;5058521;28;20017;-39
2021/04/26 09:16:21;;;;;;;1.30;0.50;;;22.70;28.20;;;;;;5064546;28;20353;-41
2021/04/26 09:19:05;;;;;;;2.47;0.73;;;23.30;28.60;;;;;;5052282;28;20067;-39
2021/04/26 09:21:46;;;;;;;1.98;0.60;;;21.90;27.70;;;;;;5064258;28;20031;-40
2021/04/26 09:24:18;;;;;;;0.68;0.43;;;19.90;29.00;;;;;;5058948;28;20032;-38
2021/04/26 09:26:46;;;;;;;1.55;0.52;;;18.20;29.80;;;;;;5057414;28;20021;-39
2021/04/26 09:29:13;;;;;;;2.50;0.70;;;17.10;30.50;;;;;;5063461;28;20052;-38
2021/04/26 09:31:41;;;;;;;2.00;0.82;;;16.40;31.20;;;;;;5054172;28;20025;-38
2021/04/26 09:34:43;;;;;;;1.75;0.70;;;15.60;32.30;;;;;;5054297;28;20049;-40
2021/04/26 09:37:19;;;;;;;2.10;0.60;;;15.00;33.60;;;;;;5054740;28;20081;-40
2021/04/26 09:40:01;;;;;;;;;;;14.40;34.10;;;;;;5058240;28;20041;-37
2021/04/26 09:42:49;;;;;;;1.85;0.63;;;14.20;34.50;;;;;;5057320;28;19957;-38
2021/04/26 09:45:20;;;;;;;1.63;0.88;;;14.00;35.40;;;;;;5066027;28;20435;-37
2021/04/26 09:47:46;;;;;;;1.02;0.50;;;13.90;34.50;;;;;;5053770;28;20366;-37
2021/04/26 09:50:13;;;;;;;3.00;0.73;;;13.80;35.00;;;;;;5054065;28;20044;-38
2021/04/26 09:52:39;;;;;;;3.72;0.63;;;13.60;36.20;;;;;;5070199;28;20503;-38
2021/04/26 09:55:05;;;;;;;0.80;0.60;;;13.40;36.50;;;;;;5062263;28;20128;-38
2021/04/26 09:57:31;;;;;;;1.10;0.70;;;14.20;35.60;;;;;;5063071;28;20067;-38
2021/04/26 09:59:58;;;;;;;4.88;0.75;;;14.40;35.80;;;;;;5052138;28;20029;-38
2021/04/26 10:02:24;;;;;;;1.52;0.50;;;14.60;35.00;;;;;;5057823;28;20040;-38
2021/04/26 10:04:50;;;;;;;1.55;0.57;;;14.50;35.10;;;;;;5059009;28;20540;-39
2021/04/26 10:07:16;;;;;;;2.05;0.80;;;14.20;35.20;;;;;;5050205;28;20055;-38
2021/04/26 10:09:44;;;;;;;0.77;0.50;;;13.90;35.30;;;;;;5054324;28;20056;-38
2021/04/26 10:12:10;;;;;;;0.77;0.47;;;13.70;35.10;;;;;;5052921;28;20067;-38
2021/04/26 10:14:40;;;;;;;1.10;0.50;;;13.50;35.00;;;;;;5040773;28;20033;-38
2021/04/26 10:17:10;;;;;;;1.55;0.77;;;13.20;34.80;;;;;;5058401;28;20043;-38
2021/04/26 10:19:45;;;;;;;1.60;0.60;;;13.00;35.00;;;;;;5058851;28;20029;-37
2021/04/26 10:22:10;;;;;;;4.03;0.73;;;13.10;35.10;;;;;;5072153;28;20409;-38
2021/04/26 10:24:56;;;;;;;1.00;0.80;;;13.00;35.90;;;;;;5059862;28;20530;-38
2021/04/26 10:27:29;;;;;;;0.98;0.50;;;12.80;36.40;;;;;;5052838;28;20023;-38
2021/04/26 10:30:03;;;;;;;0.93;0.50;;;12.90;36.00;;;;;;5071178;28;20025;-38
2021/04/26 10:32:28;;;;;;;1.17;0.40;;;12.90;36.20;;;;;;5053066;28;20020;-38
2021/04/26 10:34:54;;;;;;;1.15;0.50;;;12.90;36.10;;;;;;5067443;28;20549;-38
2021/04/26 10:37:25;;;;;;;0.88;0.47;;;13.00;36.20;;;;;;5068935;28;20025;-38
2021/04/26 10:39:59;;;;;;;0.35;0.32;;;13.00;35.80;;;;;;5052942;28;20021;-38
2021/04/26 10:42:43;;;;;;;0.93;0.43;;;12.80;36.20;;;;;;5053088;28;20025;-38
2021/04/26 10:45:20;;;;;;;1.77;0.80;;;12.70;37.00;;;;;;5053649;28;20036;-38
2021/04/26 10:48:06;;;;;;;1.75;0.65;;;12.60;36.70;;;;;;5052081;28;20391;-38
2021/04/26 10:50:34;;;;;;;3.30;1.10;;;12.60;36.80;;;;;;5053475;28;20025;-38
2021/04/26 10:53:00;;;;;;;1.55;0.60;;;12.60;36.80;;;;;;5053256;28;20029;-38
2021/04/26 10:55:26;;;;;;;1.83;0.57;;;12.60;35.80;;;;;;5053512;28;20032;-38
2021/04/26 10:57:56;;;;;;;0.35;0.35;;;12.70;36.10;;;;;;5053140;28;20025;-38
2021/04/26 11:00:30;;;;;;;3.90;0.68;;;12.90;35.80;;;;;;5053382;28;20028;-38
2021/04/26 11:03:05;;;;;;;2.03;0.70;;;13.10;35.80;;;;;;5052234;28;20051;-38
2021/04/26 11:05:31;;;;;;;0.85;0.50;;;13.00;35.70;;;;;;5052814;28;20100;-39
2021/04/26 11:10:28;;;;;;;1.58;0.57;;;12.80;36.10;;;;;;5042383;28;20025;-38
2021/04/26 11:12:54;;;;;;;2.60;0.57;;;12.80;36.10;;;;;;5044029;28;20378;-39
2021/04/26 11:15:24;;;;;;;3.47;0.90;;;12.80;36.10;;;;;;5070788;28;20479;-38
2021/04/26 11:17:51;;;;;;;1.58;0.57;;;12.70;36.20;;;;;;5052123;28;20033;-38
2021/04/26 11:20:23;;;;;;;0.95;0.75;;;12.80;36.10;;;;;;5052860;28;20056;-38
2021/04/26 11:22:52;;;;;;;1.30;0.60;;;12.80;35.80;;;;;;5052441;28;20021;-38
2021/04/26 11:25:34;;;;;;;1.98;0.75;;;13.00;35.70;;;;;;5051501;28;20434;-38
2021/04/26 11:28:02;;;;;;;1.27;0.40;;;13.30;36.10;;;;;;5032557;28;20100;-38
2021/04/26 11:30:31;;;;;;;0.90;0.50;;;13.60;35.40;;;;;;5038428;28;20012;-38
2021/04/26 11:33:17;;;;;;;2.15;0.70;;;13.70;35.30;;;;;;5053228;28;20028;-38
2021/04/26 11:36:01;;;;;;;;;;;13.90;35.00;;;;;;5052461;28;20102;-38
2021/04/26 11:38:27;;;;;;;0.55;0.50;;;13.90;35.10;;;;;;5052497;28;19912;-38
2021/04/26 11:40:53;;;;;;;2.08;0.50;;;13.80;34.50;;;;;;5052264;28;20396;-38
2021/04/26 11:43:18;;;;;;;1.77;0.65;;;13.70;34.50;;;;;;5048202;28;20037;-37
2021/04/26 11:45:47;;;;;;;2.60;0.60;;;13.50;34.30;;;;;;5051722;28;20033;-38
2021/04/26 11:48:20;;;;;;;1.33;0.60;;;13.10;34.60;;;;;;5050360;28;20028;-38
2021/04/26 11:50:45;;;;;;;0.90;0.32;;;12.90;35.10;;;;;;5054875;28;20029;-38
2021/04/26 11:53:24;;;;;;;3.38;0.50;;;12.80;35.40;;;;;;5051796;28;20476;-38
2021/04/26 11:55:51;;;;;;;1.25;0.70;;;12.80;35.50;;;;;;5051509;28;20025;-38
2021/04/26 11:58:24;;;;;;;1.75;0.50;;;12.80;35.40;;;;;;5042444;28;20569;-38
2021/04/26 12:00:49;;;;;;;0.65;0.32;;;12.80;35.60;;;;;;5052203;28;20112;-38
2021/04/26 12:03:15;;;;;;;0.73;0.40;;;12.90;35.50;;;;;;5050407;28;20115;-38
2021/04/26 12:05:42;;;;;;;1.55;0.50;;;12.90;35.60;;;;;;5050941;28;20025;-38
2021/04/26 12:08:10;;;;;;;0.93;0.70;;;13.00;35.50;;;;;;5051787;28;20357;-38
2021/04/26 12:10:41;;;;;;;1.40;0.60;;;12.80;35.50;;;;;;5051782;28;20021;-38
2021/04/26 12:13:08;;;;;;;2.08;0.50;;;12.60;35.80;;;;;;5051449;28;20029;-38
2021/04/26 12:15:35;;;;;;;0.60;0.43;;;12.40;35.80;;;;;;5051501;28;20028;-37
2021/04/26 12:18:02;;;;;;;0.82;0.60;;;12.30;36.10;;;;;;5050551;28;20029;-38
2021/04/26 12:20:31;;;;;;;1.05;0.55;;;12.20;36.00;;;;;;5055354;28;20025;-38
2021/04/26 12:22:59;;;;;;;1.13;0.70;;;12.30;35.90;;;;;;5072031;28;20031;-38
2021/04/26 12:25:34;;;;;;;0.63;0.50;;;12.50;35.70;;;;;;5062207;28;20025;-38
2021/04/26 12:28:01;;;;;;;3.78;0.40;;;12.90;35.80;;;;;;5051851;28;20483;-37
2021/04/26 12:30:27;;;;;;;0.85;0.40;;;13.20;35.50;;;;;;5067980;28;20385;-38
2021/04/26 12:32:55;;;;;;;4.57;0.60;;;13.40;35.30;;;;;;5064518;28;20538;-38
2021/04/26 12:35:30;;;;;;;0.80;0.38;;;13.30;35.40;;;;;;5071577;28;20123;-37
2021/04/26 12:37:58;;;;;;;11.80;1.25;;;13.30;35.60;;;;;;5061046;28;20037;-38
2021/04/26 12:40:29;;;;;;;3.15;0.60;;;13.20;35.70;;;;;;5040404;28;20563;-38
2021/04/26 12:42:57;;;;;;;3.58;0.50;;;13.10;35.50;;;;;;5051071;28;20033;-38
2021/04/26 12:45:35;;;;;;;1.80;0.50;;;12.90;35.50;;;;;;5034588;28;20141;-37
2021/04/26 12:48:03;;;;;;;33.38;3.30;;;12.90;35.50;;;;;;5046497;28;20021;-38
2021/04/26 12:50:34;;;;;;;0.77;0.50;;;12.80;35.50;;;;;;5050379;28;20100;-38
2021/04/26 12:53:21;;;;;;;0.90;0.50;;;12.70;35.70;;;;;;5051379;28;20025;-38
2021/04/26 12:56:04;;;;;;;3.33;0.95;;;12.50;35.50;;;;;;5049297;28;20020;-38
2021/04/26 12:58:42;;;;;;;1.00;0.32;;;12.30;35.70;;;;;;5031621;28;20053;-38